createdAt,value
2022-09-07T00:03:14.025Z,101206.88
2022-09-07T00:07:16.314Z,101201.00
2022-09-07T00:11:19.742Z,101194.88
2022-09-07T00:15:21.946Z,101190.69
2022-09-07T00:19:23.867Z,101189.13
2022-09-07T00:23:27.579Z,101178.50
2022-09-07T00:27:29.743Z,101169.13
2022-09-07T00:31:32.420Z,101161.47
2022-09-07T00:35:40.110Z,101162.53
2022-09-07T00:39:42.459Z,101166.78
2022-09-07T00:43:56.845Z,101165.03
2022-09-07T00:48:07.712Z,101162.63
2022-09-07T00:52:12.484Z,101163.75
2022-09-07T00:56:14.710Z,101172.34
2022-09-07T01:00:17.217Z,101176.09
2022-09-07T01:04:20.382Z,101170.00
2022-09-07T01:08:25.737Z,101170.13
2022-09-07T01:12:27.964Z,101164.22
2022-09-07T01:17:08.259Z,101158.25
2022-09-07T01:21:19.755Z,101165.25
2022-09-07T01:25:23.478Z,101162.56
2022-09-07T01:29:47.834Z,101177.22
2022-09-07T01:33:55.422Z,101164.53
2022-09-07T01:38:09.943Z,101154.22
2022-09-07T01:42:15.018Z,101166.31
2022-09-07T01:46:27.083Z,101166.56
2022-09-07T01:50:38.350Z,101157.00
2022-09-07T01:55:03.336Z,101154.50
2022-09-07T01:59:18.803Z,101150.38
2022-09-07T02:03:29.974Z,101149.69
2022-09-07T02:07:56.505Z,101168.75
2022-09-07T02:12:04.005Z,101163.56
2022-09-07T02:16:36.636Z,101155.16
2022-09-07T02:20:42.874Z,101143.78
2022-09-07T02:24:50.902Z,101140.38
2022-09-07T02:28:53.383Z,101144.72
2022-09-07T02:32:56.477Z,101143.97
2022-09-07T02:37:02.930Z,101134.66
2022-09-07T02:41:07.414Z,101123.41
2022-09-07T02:45:13.347Z,101131.19
2022-09-07T02:49:15.349Z,101135.56
2022-09-07T02:53:39.837Z,101136.38
2022-09-07T02:58:00.546Z,101134.91
2022-09-07T03:02:05.814Z,101125.47
2022-09-07T03:06:21.418Z,101110.06
2022-09-07T03:10:24.880Z,101117.91
2022-09-07T03:14:27.096Z,101108.44
2022-09-07T03:18:29.851Z,101110.34
2022-09-07T03:22:34.164Z,101106.75
2022-09-07T03:26:43.364Z,101104.25
2022-09-07T03:30:49.450Z,101104.31
2022-09-07T03:34:52.363Z,101102.72
2022-09-07T03:38:55.330Z,101106.19
2022-09-07T03:42:57.653Z,101108.81
2022-09-07T03:46:59.956Z,101108.81
2022-09-07T03:51:08.426Z,101109.69
2022-09-07T03:55:10.461Z,101111.41
2022-09-07T03:59:12.819Z,101115.75
2022-09-07T04:03:15.060Z,101116.63
2022-09-07T04:07:17.375Z,101113.13
2022-09-07T04:11:20.028Z,101102.66
2022-09-07T04:15:22.458Z,101100.91
2022-09-07T04:19:24.694Z,101110.53
2022-09-07T04:23:27.108Z,101113.72
2022-09-07T04:27:29.221Z,101113.72
2022-09-07T04:31:34.431Z,101115.28
2022-09-07T04:35:42.077Z,101125.34
2022-09-07T04:39:44.407Z,101111.56
2022-09-07T04:43:47.698Z,101124.31
2022-09-07T04:47:50.155Z,101117.06
2022-09-07T04:51:55.392Z,101126.84
2022-09-07T04:56:00.582Z,101133.31
2022-09-07T05:00:04.047Z,101126.03
2022-09-07T05:04:06.297Z,101133.44
2022-09-07T05:08:08.269Z,101145.09
2022-09-07T05:12:10.995Z,101137.63
2022-09-07T05:16:24.260Z,101136.97
2022-09-07T05:20:26.767Z,101159.81
2022-09-07T05:24:28.917Z,101191.28
2022-09-07T05:28:31.778Z,101200.31
2022-09-07T05:32:34.439Z,101197.19
2022-09-07T05:36:37.143Z,101215.56
2022-09-07T05:40:40.786Z,101233.19
2022-09-07T05:44:43.951Z,101221.16
2022-09-07T05:48:47.084Z,101233.56
2022-09-07T05:52:49.476Z,101229.25
2022-09-07T05:56:51.444Z,101229.19
2022-09-07T06:00:57.607Z,101233.53
2022-09-07T06:04:59.601Z,101238.00
2022-09-07T06:09:01.878Z,101244.22
2022-09-07T06:13:04.801Z,101246.00
2022-09-07T06:17:07.034Z,101240.00
2022-09-07T06:21:30.579Z,101237.38
2022-09-07T06:25:33.508Z,101240.84
2022-09-07T06:29:35.817Z,101242.00
2022-09-07T06:33:37.997Z,101237.59
2022-09-07T06:37:40.765Z,101220.88
2022-09-07T06:41:58.880Z,101216.56
2022-09-07T06:50:28.450Z,101211.56
2022-09-07T06:58:55.408Z,101222.03
2022-09-07T07:02:57.452Z,101213.38
2022-09-07T07:06:59.755Z,101211.50
2022-09-07T07:11:10.423Z,101210.03
2022-09-07T07:15:12.629Z,101215.50
2022-09-07T07:19:14.749Z,101208.63
2022-09-07T07:23:17.072Z,101216.63
2022-09-07T07:27:19.107Z,101222.94
2022-09-07T07:31:26.385Z,101227.81
2022-09-07T07:35:28.338Z,101238.41
2022-09-07T07:43:57.336Z,101240.72
2022-09-07T07:47:59.543Z,101238.63
2022-09-07T07:56:24.659Z,101233.50
2022-09-07T08:00:43.710Z,101232.56
2022-09-07T08:04:49.460Z,101241.34
2022-09-07T08:08:51.555Z,101227.06
2022-09-07T08:12:53.721Z,101223.78
2022-09-07T08:16:55.634Z,101212.00
2022-09-07T08:21:05.847Z,101209.91
2022-09-07T08:25:08.810Z,101210.44
2022-09-07T08:29:11.046Z,101204.84
2022-09-07T08:33:13.183Z,101209.50
2022-09-07T08:37:15.395Z,101204.78
2022-09-07T08:41:34.356Z,101193.44
2022-09-07T08:45:45.595Z,101189.47
2022-09-07T08:50:03.174Z,101184.06
2022-09-07T08:54:06.376Z,101170.16
2022-09-07T08:58:32.590Z,101174.66
2022-09-07T09:02:44.017Z,101171.50
2022-09-07T09:07:03.393Z,101158.09
2022-09-07T09:11:17.433Z,101171.50
2022-09-07T09:15:32.342Z,101153.16
2022-09-07T09:19:41.747Z,101152.97
2022-09-07T09:23:46.565Z,101149.56
2022-09-07T09:27:49.835Z,101134.16
2022-09-07T09:31:53.676Z,101142.38
2022-09-07T09:36:00.832Z,101128.78
2022-09-07T09:40:04.562Z,101132.63
2022-09-07T09:44:16.398Z,101118.19
2022-09-07T09:48:24.027Z,101129.50
2022-09-07T09:52:45.045Z,101126.84
2022-09-07T09:56:50.085Z,101120.81
2022-09-07T10:05:24.730Z,101113.53
2022-09-07T10:09:38.118Z,101114.38
2022-09-07T10:13:56.232Z,101112.56
2022-09-07T10:17:59.710Z,101103.38
2022-09-07T10:22:18.791Z,101094.44
2022-09-07T10:26:28.658Z,101108.47
2022-09-07T10:30:41.190Z,101106.75
2022-09-07T10:34:49.070Z,101089.03
2022-09-07T10:39:01.467Z,101076.63
2022-09-07T10:43:22.348Z,101070.22
2022-09-07T10:47:30.752Z,101068.38
2022-09-07T10:51:56.358Z,101068.97
2022-09-07T10:56:26.499Z,101064.97
2022-09-07T11:00:39.280Z,101068.50
2022-09-07T11:04:49.554Z,101064.00
2022-09-07T11:09:21.074Z,101063.13
2022-09-07T11:13:30.219Z,101064.47
2022-09-07T11:17:55.248Z,101069.03
2022-09-07T11:22:16.198Z,101069.75
2022-09-07T11:26:39.607Z,101059.88
2022-09-07T11:31:01.011Z,101054.84
2022-09-07T11:35:25.942Z,101048.53
2022-09-07T11:39:55.302Z,101037.56
2022-09-07T11:44:28.855Z,101034.84
2022-09-07T11:48:42.205Z,101021.81
2022-09-07T11:53:14.933Z,101026.88
2022-09-07T11:57:38.298Z,101026.19
2022-09-07T12:02:02.170Z,101018.81
2022-09-07T12:06:15.342Z,101017.00
2022-09-07T12:10:39.917Z,100997.72
2022-09-07T12:15:02.722Z,101012.63
2022-09-07T12:19:23.729Z,101014.00
2022-09-07T12:23:29.847Z,101007.84
2022-09-07T12:27:31.984Z,101010.00
2022-09-07T12:36:26.382Z,100998.34
2022-09-07T12:40:33.798Z,100993.88
2022-09-07T12:44:37.739Z,100987.47
2022-09-07T12:49:10.768Z,100986.00
2022-09-07T12:53:13.004Z,100984.03
2022-09-07T12:57:35.956Z,100981.06
2022-09-07T13:01:50.442Z,100972.56
2022-09-07T13:10:49.463Z,100965.31
2022-09-07T13:14:55.726Z,100965.78
2022-09-07T13:18:59.527Z,100956.91
2022-09-07T13:23:12.282Z,100951.63
2022-09-07T13:27:27.582Z,100956.03
2022-09-07T13:31:52.926Z,100947.91
2022-09-07T13:36:00.370Z,100952.13
2022-09-07T13:40:04.221Z,100932.28
2022-09-07T13:44:06.630Z,100936.22
2022-09-07T13:48:20.434Z,100928.06
2022-09-07T13:52:33.677Z,100924.72
2022-09-07T13:56:58.435Z,100928.88
2022-09-07T14:01:18.483Z,100926.97
2022-09-07T14:05:22.498Z,100932.41
2022-09-07T14:09:27.263Z,100932.41
2022-09-07T14:13:29.497Z,100924.88
2022-09-07T14:17:31.591Z,100929.59
2022-09-07T14:21:33.740Z,100918.38
2022-09-07T14:26:16.037Z,100910.09
2022-09-07T14:30:20.325Z,100910.81
2022-09-07T14:34:26.573Z,100905.41
2022-09-07T14:42:55.905Z,100899.38
2022-09-07T14:47:02.766Z,100898.50
2022-09-07T14:51:26.941Z,100886.06
2022-09-07T14:55:37.131Z,100878.38
2022-09-07T14:59:44.422Z,100881.19
2022-09-07T15:03:46.531Z,100880.25
2022-09-07T15:07:51.834Z,100872.56
2022-09-07T15:12:04.220Z,100879.53
2022-09-07T15:16:18.991Z,100866.75
2022-09-07T15:20:44.399Z,100866.69
2022-09-07T15:24:50.337Z,100866.66
2022-09-07T15:29:18.421Z,100869.00
2022-09-07T15:33:14.438Z,100867.94
2022-09-07T15:41:38.600Z,100858.16
2022-09-07T15:45:40.863Z,100860.22
2022-09-07T15:49:50.342Z,100872.59
2022-09-07T15:54:13.398Z,100868.94
2022-09-07T15:58:15.750Z,100874.28
2022-09-07T16:06:41.290Z,100878.53
2022-09-07T16:10:43.432Z,100877.47
2022-09-07T16:14:45.481Z,100868.75
2022-09-07T16:18:48.122Z,100877.03
2022-09-07T16:27:13.039Z,100860.00
2022-09-07T16:31:18.870Z,100865.34
2022-09-07T16:35:21.077Z,100862.13
2022-09-07T16:39:23.383Z,100866.91
2022-09-07T16:43:25.927Z,100869.00
2022-09-07T16:47:27.870Z,100863.22
2022-09-07T16:51:30.042Z,100859.88
2022-09-07T16:55:32.223Z,100869.19
2022-09-07T16:59:34.899Z,100865.94
2022-09-07T17:03:38.419Z,100875.38
2022-09-07T17:07:40.590Z,100870.28
2022-09-07T17:11:42.607Z,100866.31
2022-09-07T17:15:44.755Z,100873.94
2022-09-07T17:19:46.707Z,100882.63
2022-09-07T17:23:54.853Z,100875.75
2022-09-07T17:27:57.792Z,100882.47
2022-09-07T17:36:25.956Z,100877.69
2022-09-07T17:40:28.557Z,100882.22
2022-09-07T17:44:37.670Z,100892.06
2022-09-07T17:48:40.665Z,100900.75
2022-09-07T17:52:45.947Z,100902.47
2022-09-07T17:56:48.635Z,100906.06
2022-09-07T18:00:51.102Z,100910.50
2022-09-07T18:04:53.471Z,100909.16
2022-09-07T18:08:55.561Z,100915.63
2022-09-07T18:12:57.721Z,100908.81
2022-09-07T18:17:00.432Z,100908.47
2022-09-07T18:21:03.379Z,100908.06
2022-09-07T18:25:10.096Z,100914.31
2022-09-07T18:29:27.314Z,100909.72
2022-09-07T18:33:30.490Z,100902.63
2022-09-07T18:37:32.725Z,100908.72
2022-09-07T18:41:34.980Z,100906.59
2022-09-07T18:45:37.226Z,100904.41
2022-09-07T18:49:39.338Z,100913.34
2022-09-07T18:53:41.818Z,100905.44
2022-09-07T18:57:43.973Z,100905.94
2022-09-07T19:01:46.247Z,100909.75
2022-09-07T19:05:50.474Z,100912.03
2022-09-07T19:09:53.084Z,100904.81
2022-09-07T19:13:57.647Z,100908.38
2022-09-07T19:17:59.963Z,100902.78
2022-09-07T19:22:03.404Z,100904.72
2022-09-07T19:26:11.176Z,100897.34
2022-09-07T19:30:13.967Z,100892.59
2022-09-07T19:34:17.056Z,100891.84
2022-09-07T19:38:23.011Z,100894.66
2022-09-07T19:42:28.042Z,100896.41
2022-09-07T19:46:30.182Z,100900.97
2022-09-07T19:50:32.573Z,100910.22
2022-09-07T19:54:36.483Z,100906.41
2022-09-07T19:58:44.437Z,100908.88
2022-09-07T20:02:49.107Z,100908.78
2022-09-07T20:06:51.884Z,100906.50
2022-09-07T20:11:00.262Z,100911.69
2022-09-07T20:15:02.431Z,100912.44
2022-09-07T20:19:07.681Z,100913.53
2022-09-07T20:23:10.002Z,100907.59
2022-09-07T20:27:11.881Z,100903.69
2022-09-07T20:31:16.201Z,100910.22
2022-09-07T20:35:18.488Z,100903.25
2022-09-07T20:39:20.849Z,100906.06
2022-09-07T20:43:23.106Z,100907.84
2022-09-07T20:47:25.503Z,100904.91
2022-09-07T20:51:28.027Z,100894.13
2022-09-07T20:55:30.496Z,100898.28
2022-09-07T20:59:32.428Z,100900.34
2022-09-07T21:03:34.668Z,100904.69
2022-09-07T21:07:40.305Z,100906.78
2022-09-07T21:11:46.108Z,100903.06
2022-09-07T21:15:51.028Z,100906.03
2022-09-07T21:19:53.308Z,100911.25
2022-09-07T21:23:57.971Z,100913.28
2022-09-07T21:28:00.290Z,100916.34
2022-09-07T21:32:03.388Z,100917.91
2022-09-07T21:36:06.321Z,100916.78
2022-09-07T21:40:08.920Z,100915.00
2022-09-07T21:44:13.665Z,100925.22
2022-09-07T21:48:15.606Z,100925.91
2022-09-07T21:52:18.286Z,100915.03
2022-09-07T21:56:21.449Z,100919.41
2022-09-07T22:00:23.618Z,100929.44
2022-09-07T22:04:25.739Z,100929.91
2022-09-07T22:08:33.088Z,100911.91
2022-09-07T22:12:35.027Z,100921.38
2022-09-07T22:16:37.237Z,100905.16
2022-09-07T22:20:40.278Z,100896.47
2022-09-07T22:24:42.484Z,100897.84
2022-09-07T22:28:44.526Z,100891.31
2022-09-07T22:32:48.123Z,100886.28
2022-09-07T22:36:50.328Z,100883.13
2022-09-07T22:40:52.460Z,100877.13
2022-09-07T22:44:55.259Z,100878.16
2022-09-07T22:48:59.313Z,100879.50
2022-09-07T22:53:01.275Z,100882.13
2022-09-07T22:57:03.596Z,100882.03
2022-09-07T23:01:06.624Z,100886.06
2022-09-07T23:05:09.624Z,100880.28
2022-09-07T23:09:15.070Z,100887.28
2022-09-07T23:13:17.704Z,100878.97
2022-09-07T23:17:19.666Z,100886.47
2022-09-07T23:21:22.079Z,100877.59
2022-09-07T23:25:24.068Z,100883.91
2022-09-07T23:29:26.351Z,100888.44
2022-09-07T23:33:28.651Z,100869.72
2022-09-07T23:37:31.899Z,100871.69
2022-09-07T23:41:34.050Z,100866.66
2022-09-07T23:45:37.029Z,100856.06
2022-09-07T23:49:39.196Z,100853.47
2022-09-07T23:53:41.561Z,100863.19
2022-09-07T23:57:43.736Z,100831.25
